Time;durP1;ratioP1;P1;durP2;ratioP2;P2;SDS_P1;SDS_P2;PMS_P1;PMS_P2;Temp;Humidity;BMP_temperature;BMP_pressure;BME280_temperature;BME280_humidity;BME280_pressure;Samples;Min_cycle;Max_cycle;Signal;HPM_P1;HPM_P2
2022/05/11 00:00:37;;;;;;;5.70;3.75;;;;;;;8.64;100.00;91208.06;5033398;28;20392;-66
2022/05/11 00:03:04;;;;;;;3.97;2.40;;;;;;;8.51;100.00;91198.19;5033626;28;20041;-66
2022/05/11 00:05:30;;;;;;;2.80;1.90;;;;;;;8.45;100.00;91199.34;5033474;28;20029;-66
2022/05/11 00:07:56;;;;;;;3.35;1.98;;;;;;;8.54;100.00;91194.19;5033509;28;20032;-66
2022/05/11 00:10:21;;;;;;;2.08;1.50;;;;;;;8.56;100.00;91192.81;5033549;28;20108;-66
2022/05/11 00:12:47;;;;;;;2.22;1.77;;;;;;;8.52;100.00;91197.13;5033678;28;20104;-66
2022/05/11 00:15:16;;;;;;;1.60;1.50;;;;;;;8.50;100.00;91191.31;5033275;28;20423;-66
2022/05/11 00:17:41;;;;;;;2.50;1.92;;;;;;;8.49;100.00;91189.75;5033379;28;20033;-66
2022/05/11 00:20:09;;;;;;;2.13;1.88;;;;;;;8.58;100.00;91184.56;5033405;28;20411;-66
2022/05/11 00:22:35;;;;;;;2.65;2.20;;;;;;;8.59;100.00;91178.97;5033360;28;20033;-66
2022/05/11 00:25:03;;;;;;;2.53;2.13;;;;;;;8.59;100.00;91181.63;5033820;28;20064;-67
2022/05/11 00:27:29;;;;;;;2.25;2.08;;;;;;;8.51;100.00;91178.84;5033860;28;20034;-66
2022/05/11 00:29:54;;;;;;;2.22;2.00;;;;;;;8.42;100.00;91191.19;5033312;28;20128;-66
2022/05/11 00:32:21;;;;;;;2.10;1.90;;;;;;;8.37;100.00;91194.72;5033007;28;20403;-66
2022/05/11 00:34:46;;;;;;;2.15;1.95;;;;;;;8.34;100.00;91195.28;5032976;28;20112;-66
2022/05/11 00:37:12;;;;;;;1.83;1.55;;;;;;;8.31;100.00;91195.81;5032891;28;20575;-66
2022/05/11 00:39:37;;;;;;;1.73;1.63;;;;;;;8.28;100.00;91196.41;5032985;28;20049;-66
2022/05/11 00:42:04;;;;;;;1.90;1.80;;;;;;;8.22;100.00;91198.34;5032991;28;20037;-66
2022/05/11 00:44:29;;;;;;;2.95;1.92;;;;;;;8.11;100.00;91189.75;5033083;28;20037;-66
2022/05/11 00:47:04;;;;;;;1.65;1.55;;;;;;;7.98;100.00;91190.47;5032562;28;20124;-66
2022/05/11 00:50:07;;;;;;;1.63;1.52;;;;;;;7.96;100.00;91189.97;5032556;28;20080;-66
2022/05/11 00:52:36;;;;;;;1.70;1.60;;;;;;;7.86;100.00;91194.59;5011138;28;20121;-66
2022/05/11 00:55:19;;;;;;;1.55;1.42;;;;;;;7.73;100.00;91183.66;5032006;28;20026;-66
2022/05/11 00:57:55;;;;;;;1.98;1.52;;;;;;;7.76;100.00;91195.53;5032604;28;20094;-66
2022/05/11 01:00:22;;;;;;;2.05;1.88;;;;;;;7.69;100.00;91189.78;5032513;28;20087;-66
2022/05/11 01:02:54;;;;;;;1.52;1.42;;;;;;;7.68;100.00;91196.16;5032485;28;20029;-66
2022/05/11 01:05:22;;;;;;;1.88;1.70;;;;;;;7.61;100.00;91188.56;5032284;28;20037;-66
2022/05/11 01:07:49;;;;;;;2.42;2.22;;;;;;;7.62;100.00;91186.69;5032635;28;20087;-66
2022/05/11 01:10:15;;;;;;;3.33;2.17;;;;;;;7.60;100.00;91186.19;5032330;28;20037;-66
2022/05/11 01:12:45;;;;;;;1.77;1.67;;;;;;;7.59;100.00;91192.56;5032228;28;20022;-66
2022/05/11 01:15:14;;;;;;;2.08;1.73;;;;;;;7.69;100.00;91181.84;5032117;28;20083;-66
2022/05/11 01:17:40;;;;;;;3.00;2.25;;;;;;;7.74;100.00;91179.13;5032215;28;20578;-66
2022/05/11 01:20:22;;;;;;;2.13;1.77;;;;;;;7.71;100.00;91183.13;5032363;28;20037;-66
2022/05/11 01:23:18;;;;;;;2.55;1.92;;;;;;;7.78;100.00;91185.44;5032225;28;20037;-66
2022/05/11 01:25:44;;;;;;;2.00;1.80;;;;;;;7.82;100.00;91189.88;5031970;28;20025;-67
2022/05/11 01:28:13;;;;;;;1.88;1.75;;;;;;;7.83;100.00;91177.41;5031987;28;20415;-67
2022/05/11 01:30:51;;;;;;;2.30;2.10;;;;;;;7.94;100.00;91178.84;5031975;28;20033;-66
2022/05/11 01:33:22;;;;;;;2.72;1.63;;;;;;;8.00;100.00;91175.06;5031731;28;20092;-66
2022/05/11 01:36:03;;;;;;;1.77;1.67;;;;;;;8.01;100.00;91166.03;5031928;28;20488;-66
2022/05/11 01:38:42;;;;;;;1.77;1.67;;;;;;;8.04;100.00;91170.75;5032097;28;20053;-66
2022/05/11 01:41:10;;;;;;;2.17;1.92;;;;;;;8.00;100.00;91169.75;5031674;28;20061;-66
2022/05/11 01:43:39;;;;;;;2.05;1.70;;;;;;;8.03;100.00;91169.19;5031771;28;20021;-66
2022/05/11 01:46:06;;;;;;;1.67;1.58;;;;;;;8.05;100.00;91168.91;5031669;28;20044;-66
2022/05/11 01:48:31;;;;;;;3.42;2.00;;;;;;;7.92;100.00;91173.06;5030406;28;20037;-66
2022/05/11 01:50:57;;;;;;;1.85;1.75;;;;;;;7.92;100.00;91182.88;5031631;28;20046;-66
2022/05/11 01:53:23;;;;;;;2.15;1.98;;;;;;;7.89;100.00;91184.25;5031525;28;20475;-66
2022/05/11 01:55:49;;;;;;;2.40;2.20;;;;;;;7.75;100.00;91184.16;5029779;28;20429;-66
2022/05/11 01:58:15;;;;;;;2.50;2.30;;;;;;;7.45;100.00;91180.03;5020869;28;20022;-66
2022/05/11 02:00:42;;;;;;;2.33;2.00;;;;;;;7.23;100.00;91182.38;5020614;28;20026;-66
2022/05/11 02:03:08;;;;;;;2.42;2.15;;;;;;;7.16;100.00;91184.56;5019119;28;20022;-66
2022/05/11 02:08:18;;;;;;;3.40;2.33;;;;;;;6.95;100.00;91185.88;5028148;28;20064;-67
2022/05/11 02:10:43;;;;;;;2.47;1.90;;;;;;;6.86;100.00;91181.16;5029803;28;20056;-67
2022/05/11 02:13:09;;;;;;;2.28;2.05;;;;;;;6.87;100.00;91185.38;5029743;28;20113;-66
2022/05/11 02:15:36;;;;;;;2.13;1.95;;;;;;;6.93;100.00;91180.03;5020418;28;20042;-66
2022/05/11 02:18:03;;;;;;;2.55;2.13;;;;;;;6.98;100.00;91185.31;5020603;28;20080;-66
2022/05/11 02:20:28;;;;;;;2.10;1.67;;;;;;;7.02;100.00;91181.03;5029739;28;20022;-66
2022/05/11 02:22:54;;;;;;;1.70;1.60;;;;;;;7.05;100.00;91183.09;5020467;28;20039;-67
2022/05/11 02:25:20;;;;;;;2.25;2.05;;;;;;;7.19;100.00;91189.31;5020047;28;20511;-67
2022/05/11 02:27:47;;;;;;;1.70;1.60;;;;;;;7.22;100.00;91186.09;5029517;28;20037;-65
2022/05/11 02:30:18;;;;;;;2.00;1.90;;;;;;;7.18;100.00;91185.09;5028474;28;20466;-64
2022/05/11 02:32:44;;;;;;;1.98;1.85;;;;;;;7.09;100.00;91181.47;5029703;28;20033;-64
2022/05/11 02:35:12;;;;;;;2.75;2.38;;;;;;;7.03;100.00;91177.31;5018648;28;20088;-64
2022/05/11 02:37:46;;;;;;;3.00;2.70;;;;;;;7.04;100.00;91182.31;5029669;28;20025;-64
2022/05/11 02:40:18;;;;;;;3.20;2.90;;;;;;;7.11;100.00;91188.06;5027214;28;20411;-64
2022/05/11 02:42:44;;;;;;;5.85;4.47;;;;;;;6.98;100.00;91185.31;5029660;28;20108;-64
2022/05/11 02:45:10;;;;;;;2.67;2.35;;;;;;;6.84;100.00;91174.59;5018592;28;20032;-64
2022/05/11 02:47:36;;;;;;;4.43;2.08;;;;;;;6.79;100.00;91170.16;5020316;28;20022;-64
2022/05/11 02:50:05;;;;;;;2.22;2.10;;;;;;;6.76;100.00;91177.81;5020452;28;20112;-64
2022/05/11 02:52:32;;;;;;;3.55;2.45;;;;;;;6.74;100.00;91175.47;5027859;28;20083;-64
2022/05/11 02:54:58;;;;;;;2.72;2.40;;;;;;;6.73;100.00;91179.19;5030574;28;20033;-64
2022/05/11 02:57:23;;;;;;;2.70;2.50;;;;;;;6.69;100.00;91180.81;5029611;28;20458;-64
2022/05/11 02:59:49;;;;;;;3.10;2.30;;;;;;;6.70;100.00;91179.75;5029529;28;20026;-65
2022/05/11 03:02:18;;;;;;;2.47;2.22;;;;;;;6.67;100.00;91179.50;5020175;28;20087;-65
2022/05/11 03:04:43;;;;;;;6.82;2.40;;;;;;;6.66;100.00;91180.59;5020237;28;20044;-64
2022/05/11 03:07:08;;;;;;;2.85;2.33;;;;;;;6.66;100.00;91177.94;5029380;28;20017;-64
2022/05/11 03:09:34;;;;;;;3.53;2.08;;;;;;;6.77;100.00;91177.53;5020156;28;20483;-63
2022/05/11 03:12:00;;;;;;;2.60;2.10;;;;;;;6.90;100.00;91178.75;5019619;28;20022;-63
2022/05/11 03:14:25;;;;;;;1.98;1.63;;;;;;;7.03;100.00;91179.94;5029392;28;20029;-64
2022/05/11 03:16:51;;;;;;;2.35;2.00;;;;;;;7.07;100.00;91175.66;5026684;28;20491;-64
2022/05/11 03:19:16;;;;;;;2.15;1.95;;;;;;;7.03;100.00;91166.72;5032603;28;20029;-64
2022/05/11 03:21:42;;;;;;;2.17;1.98;;;;;;;7.19;100.00;91181.38;5022783;28;20113;-64
2022/05/11 03:24:07;;;;;;;5.45;2.00;;;;;;;7.17;100.00;91183.50;5024092;28;20433;-64
2022/05/11 03:26:34;;;;;;;2.72;1.75;;;;;;;7.28;100.00;91170.97;5022295;28;20022;-64
2022/05/11 03:29:00;;;;;;;2.10;1.77;;;;;;;7.33;100.00;91174.31;5032866;28;20493;-64
2022/05/11 03:31:25;;;;;;;3.28;2.13;;;;;;;7.41;100.00;91178.97;5032731;28;21506;-64
2022/05/11 03:36:35;;;;;;;3.10;2.03;;;;;;;7.62;100.00;91174.25;5030544;28;20044;-64
2022/05/11 03:39:00;;;;;;;2.00;1.90;;;;;;;7.80;100.00;91185.94;5032618;28;20104;-64
2022/05/11 03:41:26;;;;;;;3.25;2.00;;;;;;;8.01;100.00;91173.19;5021700;28;20026;-65
2022/05/11 03:43:51;;;;;;;2.17;1.80;;;;;;;8.28;100.00;91175.19;5023752;28;20104;-64
2022/05/11 03:46:17;;;;;;;3.22;2.20;;;;;;;8.59;100.00;91176.34;5022578;28;20018;-64
2022/05/11 03:48:42;;;;;;;3.92;2.10;;;;;;;8.76;100.00;91181.09;5032374;28;20435;-64
2022/05/11 03:51:08;;;;;;;1.75;1.65;;;;;;;8.90;100.00;91181.13;5032332;28;20026;-65
2022/05/11 03:53:36;;;;;;;3.47;2.17;;;;;;;9.08;100.00;91177.63;5032354;28;20117;-64
2022/05/11 03:56:01;;;;;;;2.33;2.13;;;;;;;9.12;100.00;91191.88;5032291;28;20018;-64
2022/05/11 03:58:27;;;;;;;3.05;2.47;;;;;;;9.05;100.00;91191.47;5032133;28;20026;-64
2022/05/11 04:00:52;;;;;;;2.90;2.25;;;;;;;8.70;100.00;91204.28;5032241;28;20502;-64
2022/05/11 04:03:17;;;;;;;2.17;1.95;;;;;;;8.51;100.00;91203.50;5022340;28;20022;-64
2022/05/11 04:05:43;;;;;;;2.20;2.00;;;;;;;8.49;100.00;91200.34;5022784;28;20044;-66
2022/05/11 04:08:09;;;;;;;5.50;3.50;;;;;;;8.60;100.00;91196.47;5031593;28;20104;-65
2022/05/11 04:10:35;;;;;;;7.53;4.97;;;;;;;8.75;100.00;91199.97;5025322;28;20037;-65
2022/05/11 04:13:01;;;;;;;10.35;7.60;;;;;;;8.81;100.00;91198.78;5031768;28;20029;-65
2022/05/11 04:15:26;;;;;;;3.67;3.30;;;;;;;8.85;100.00;91215.72;5020671;28;20048;-65
2022/05/11 04:17:52;;;;;;;3.22;2.35;;;;;;;8.81;100.00;91218.13;5031801;28;20475;-65
2022/05/11 04:20:19;;;;;;;2.72;2.25;;;;;;;8.58;100.00;91219.84;5031572;28;20013;-65
2022/05/11 04:22:44;;;;;;;4.65;3.03;;;;;;;8.45;100.00;91215.25;5020533;28;20104;-65
2022/05/11 04:25:14;;;;;;;7.95;2.85;;;;;;;8.54;100.00;91226.00;5022625;28;20100;-66
2022/05/11 04:27:40;;;;;;;2.60;2.40;;;;;;;8.57;100.00;91226.22;5022105;28;20041;-66
2022/05/11 04:30:07;;;;;;;4.15;2.88;;;;;;;8.83;100.00;91225.81;5030763;28;20029;-66
2022/05/11 04:32:32;;;;;;;5.60;2.63;;;;;;;9.15;100.00;91220.50;5029009;28;20380;-65
2022/05/11 04:34:58;;;;;;;4.07;2.72;;;;;;;9.29;100.00;91221.28;5031719;28;20108;-65
2022/05/11 04:37:23;;;;;;;2.17;1.80;;;;;;;9.36;100.00;91223.59;5031697;28;20078;-65
2022/05/11 04:39:48;;;;;;;2.30;2.10;;;;;;;9.41;100.00;91223.47;5031384;28;20037;-65
2022/05/11 04:42:14;;;;;;;6.20;2.92;;;;;;;9.47;100.00;91224.19;5031577;28;20025;-66
2022/05/11 04:44:40;;;;;;;3.08;2.50;;;;;;;9.56;100.00;91219.75;5021546;28;20029;-64
2022/05/11 04:47:10;;;;;;;3.25;2.70;;;;;;;9.75;100.00;91233.72;5022313;28;20527;-65
2022/05/11 04:49:36;;;;;;;3.13;2.20;;;;;;;10.03;100.00;91231.84;5028975;28;20044;-64
2022/05/11 04:52:07;;;;;;;2.92;2.53;;;;;;;10.33;100.00;91232.31;5031345;28;20021;-65
2022/05/11 04:54:37;;;;;;;3.55;2.45;;;;;;;10.69;100.00;91226.97;5028782;28;20057;-65
2022/05/11 04:57:04;;;;;;;3.53;2.40;;;;;;;11.18;100.00;91238.59;5031370;28;20018;-65
2022/05/11 04:59:30;;;;;;;8.80;3.97;;;;;;;11.24;94.85;91234.75;5020398;28;20032;-64
2022/05/11 05:01:57;;;;;;;2.40;2.20;;;;;;;11.45;92.60;91241.13;5031313;28;20464;-65
2022/05/11 05:04:23;;;;;;;1.92;1.83;;;;;;;11.67;88.74;91242.94;5031242;28;20028;-64
2022/05/11 05:06:48;;;;;;;2.53;2.33;;;;;;;11.84;87.47;91253.72;5030950;28;20029;-65
2022/05/11 05:09:13;;;;;;;3.50;2.47;;;;;;;11.84;87.31;91244.94;5031013;28;20464;-65
2022/05/11 05:11:39;;;;;;;5.05;2.15;;;;;;;11.64;88.09;91255.00;5030928;28;20029;-64
2022/05/11 05:14:05;;;;;;;3.75;2.47;;;;;;;11.23;92.90;91257.13;5030954;28;20079;-65
2022/05/11 05:16:33;;;;;;;12.32;2.92;;;;;;;11.17;96.01;91261.78;5030688;28;20487;-65
2022/05/11 05:18:58;;;;;;;15.55;5.72;;;;;;;11.44;97.02;91268.84;5031197;28;20013;-65
2022/05/11 05:21:24;;;;;;;23.80;8.63;;;;;;;11.53;100.00;91261.69;5031181;28;20048;-65
2022/05/11 05:23:49;;;;;;;12.45;5.15;;;;;;;11.60;99.50;91270.03;5031317;28;20029;-65
2022/05/11 05:26:15;;;;;;;27.48;10.02;;;;;;;11.62;98.30;91259.84;5031328;28;20085;-65
2022/05/11 05:31:28;;;;;;;24.42;9.27;;;;;;;12.03;95.26;91269.47;5029754;28;20036;-65
2022/05/11 05:33:59;;;;;;;9.75;4.38;;;;;;;11.86;92.01;91272.06;5027977;28;20025;-65
2022/05/11 05:36:27;;;;;;;7.90;3.33;;;;;;;11.80;92.52;91273.28;5030452;28;20037;-65
2022/05/11 05:38:53;;;;;;;2.97;2.67;;;;;;;11.80;91.70;91275.94;5027912;28;20096;-64
2022/05/11 05:41:19;;;;;;;3.13;2.75;;;;;;;11.92;88.96;91276.94;5029985;28;20416;-65
2022/05/11 05:43:45;;;;;;;13.07;3.70;;;;;;;12.43;88.28;91272.09;5030445;28;20025;-65
2022/05/11 05:46:10;;;;;;;4.00;2.67;;;;;;;12.69;82.60;91278.25;5030200;28;20022;-65
2022/05/11 05:48:36;;;;;;;3.25;2.83;;;;;;;13.47;79.32;91275.63;5030094;28;20091;-65
2022/05/11 05:51:04;;;;;;;3.67;2.42;;;;;;;14.14;73.61;91260.78;5020283;28;20017;-66
2022/05/11 05:53:29;;;;;;;2.10;1.80;;;;;;;15.65;66.98;91268.78;5021160;28;20123;-67
2022/05/11 05:55:55;;;;;;;3.70;2.30;;;;;;;15.25;65.31;91283.44;5019786;28;20030;-67
2022/05/11 05:58:20;;;;;;;3.75;1.98;;;;;;;16.96;62.75;91273.03;5030221;28;20108;-67
2022/05/11 06:00:46;;;;;;;2.20;1.98;;;;;;;17.53;58.89;91285.44;5030445;28;20391;-64
2022/05/11 06:03:17;;;;;;;3.13;2.42;;;;;;;16.63;60.15;91275.06;5019276;28;20029;-66
2022/05/11 06:05:43;;;;;;;3.10;2.38;;;;;;;18.34;57.32;91274.53;5029895;28;20025;-64
2022/05/11 06:08:08;;;;;;;9.23;3.08;;;;;;;21.25;50.60;91282.25;5029790;28;20021;-64
2022/05/11 06:10:36;;;;;;;2.88;2.38;;;;;;;23.69;45.03;91285.13;5029998;28;20025;-65
2022/05/11 06:13:02;;;;;;;7.50;2.20;;;;;;;26.86;39.15;91285.03;5019608;28;20064;-64
2022/05/11 06:15:27;;;;;;;3.08;2.00;;;;;;;27.40;37.04;91290.88;5020707;28;20021;-65
2022/05/11 06:17:53;;;;;;;3.10;2.25;;;;;;;28.09;35.13;91292.56;5019194;28;20400;-64
2022/05/11 06:20:19;;;;;;;3.10;1.90;;;;;;;27.05;35.87;91298.16;5029837;28;20024;-64
2022/05/11 06:22:44;;;;;;;3.83;2.50;;;;;;;27.70;35.98;91296.47;5029970;28;20030;-65
2022/05/11 06:25:10;;;;;;;4.68;2.53;;;;;;;28.74;34.39;91298.84;5018763;28;20139;-64
2022/05/11 06:27:35;;;;;;;6.55;2.70;;;;;;;26.16;37.04;91304.03;5029895;28;20087;-64
2022/05/11 06:30:02;;;;;;;2.47;2.28;;;;;;;23.66;38.90;91293.22;5029920;28;20060;-64
2022/05/11 06:32:28;;;;;;;66.60;6.05;;;;;;;23.60;40.58;91296.31;5029432;28;20468;-64
2022/05/11 06:34:55;;;;;;;3.20;2.20;;;;;;;22.18;41.92;91292.38;5029678;28;20036;-64
2022/05/11 06:37:22;;;;;;;3.88;2.20;;;;;;;22.22;43.06;91303.22;5029784;28;20105;-64
2022/05/11 06:39:48;;;;;;;7.40;2.50;;;;;;;21.41;44.69;91306.44;5018819;28;20034;-66
2022/05/11 06:42:14;;;;;;;2.83;2.00;;;;;;;20.67;45.07;91303.34;5020673;28;20033;-64
2022/05/11 06:44:40;;;;;;;5.45;2.85;;;;;;;19.96;47.74;91303.59;5019537;28;20108;-64
2022/05/11 06:47:07;;;;;;;3.05;2.75;;;;;;;20.98;46.96;91308.50;5018990;28;20038;-65
2022/05/11 06:49:33;;;;;;;5.25;2.75;;;;;;;20.97;46.46;91306.94;5029312;28;20138;-64
2022/05/11 06:51:59;;;;;;;3.67;2.25;;;;;;;21.07;46.01;91311.72;5029094;28;20108;-65
2022/05/11 06:59:55;;;;;;;6.15;2.60;;;;;;;25.71;39.06;91313.91;5030914;28;20072;-66
2022/05/11 07:02:21;;;;;;;7.82;3.13;;;;;;;25.48;38.60;91308.09;5033329;28;20084;-66
2022/05/11 07:04:48;;;;;;;12.35;3.00;;;;;;;25.07;39.19;91309.25;5033563;28;20033;-64
2022/05/11 07:07:15;;;;;;;3.70;2.67;;;;;;;25.22;39.26;91314.72;5034638;28;20027;-64
2022/05/11 07:09:41;;;;;;;3.80;2.30;;;;;;;26.13;39.04;91309.53;5034905;28;20029;-64
2022/05/11 07:12:21;;;;;;;3.85;2.80;;;;;;;27.07;37.47;91312.19;5034464;28;20025;-64
2022/05/11 07:14:53;;;;;;;3.08;2.60;;;;;;;29.55;35.28;91311.78;5034427;28;20029;-64
2022/05/11 07:17:38;;;;;;;7.43;2.17;;;;;;;33.22;29.73;91310.41;5034378;28;20025;-65
2022/05/11 07:20:11;;;;;;;2.53;1.85;;;;;;;34.27;29.01;91314.19;5034405;28;20076;-65
2022/05/11 07:22:38;;;;;;;2.85;2.00;;;;;;;33.68;29.04;91313.75;5034551;28;20018;-64
2022/05/11 07:25:08;;;;;;;3.47;2.22;;;;;;;33.94;28.80;91315.28;5034069;28;20037;-65
2022/05/11 07:27:34;;;;;;;2.03;1.85;;;;;;;32.21;28.71;91310.13;5034363;28;20447;-64
2022/05/11 07:30:00;;;;;;;2.28;2.00;;;;;;;29.99;32.62;91308.66;5034279;28;20065;-64
2022/05/11 07:32:27;;;;;;;2.13;1.92;;;;;;;31.39;30.95;91312.88;5034023;28;20454;-65
2022/05/11 07:34:53;;;;;;;3.65;2.35;;;;;;;30.84;30.31;91310.97;5033999;28;20059;-64
2022/05/11 07:37:19;;;;;;;6.28;2.40;;;;;;;30.99;30.38;91312.22;5034113;28;20036;-63
2022/05/11 07:39:45;;;;;;;2.30;1.85;;;;;;;32.28;29.46;91307.97;5034058;28;20102;-64
2022/05/11 07:42:10;;;;;;;5.57;2.65;;;;;;;31.57;29.76;91307.75;5033968;28;20462;-64
2022/05/11 07:44:36;;;;;;;2.15;1.95;;;;;;;28.88;32.42;91304.16;5033750;28;20030;-63
2022/05/11 07:47:02;;;;;;;2.88;2.25;;;;;;;32.48;29.03;91300.31;5032477;28;20034;-64
2022/05/11 07:49:27;;;;;;;10.50;3.03;;;;;;;32.81;28.75;91297.44;5033640;28;20055;-64
2022/05/11 07:51:53;;;;;;;6.38;3.13;;;;;;;30.95;31.04;91308.78;5033735;28;20087;-63
2022/05/11 07:54:20;;;;;;;29.90;3.75;;;;;;;33.27;28.58;91304.34;5033586;28;20408;-64
2022/05/11 08:02:15;;;;;;;3.63;2.03;;;;;;;30.91;30.31;91299.81;5033833;28;20116;-64
2022/05/11 08:04:41;;;;;;;2.85;2.00;;;;;;;30.00;31.36;91299.25;5032091;28;20104;-64
2022/05/11 08:07:07;;;;;;;8.52;3.38;;;;;;;28.07;34.07;91294.91;5031867;28;20041;-64
2022/05/11 08:09:33;;;;;;;8.18;2.60;;;;;;;28.83;33.27;91298.31;5033603;28;20104;-64
2022/05/11 08:11:58;;;;;;;6.88;2.03;;;;;;;29.38;33.39;91289.69;5025728;28;20042;-64
2022/05/11 08:14:24;;;;;;;5.32;2.20;;;;;;;30.66;32.28;91295.63;5012058;28;20033;-64
2022/05/11 08:16:52;;;;;;;4.03;2.10;;;;;;;30.61;31.32;91281.59;5013110;28;20034;-64
2022/05/11 08:19:26;;;;;;;2.08;1.88;;;;;;;30.10;32.01;91287.31;5025820;28;20017;-64
2022/05/11 08:21:54;;;;;;;2.25;2.03;;;;;;;30.19;32.04;91284.00;5032656;28;20029;-65
2022/05/11 08:24:21;;;;;;;2.80;1.88;;;;;;;27.76;34.88;91288.59;5032213;28;20068;-65
2022/05/11 08:26:47;;;;;;;2.17;1.98;;;;;;;28.60;33.17;91288.06;5032597;28;20040;-65
2022/05/11 08:33:19;;;;;;;3.92;2.25;;;;;;;27.11;34.59;91285.63;5032635;28;20036;-64
2022/05/11 08:34:44;;;;;;;3.35;2.00;;;;;;;25.21;37.22;91269.59;5018393;28;20412;-64
2022/05/11 08:37:10;;;;;;;3.28;2.22;;;;;;;24.02;40.86;91289.56;5030308;28;20083;-64
2022/05/11 08:39:35;;;;;;;2.55;2.00;;;;;;;26.56;36.96;91296.50;5031614;28;20477;-64
2022/05/11 08:42:03;;;;;;;2.63;2.33;;;;;;;25.00;38.60;91292.94;5032042;28;20526;-64
2022/05/11 08:44:32;;;;;;;4.97;2.30;;;;;;;22.78;42.54;91292.19;5023128;28;20102;-64
2022/05/11 08:47:10;;;;;;;5.05;2.47;;;;;;;23.28;42.21;91298.03;5013399;28;20037;-64
2022/05/11 08:50:09;;;;;;;5.53;2.47;;;;;;;26.04;38.86;91301.00;5012964;28;20046;-63
2022/05/11 08:52:47;;;;;;;3.90;3.03;;;;;;;29.05;33.60;91293.34;5012798;28;20037;-64
2022/05/11 08:55:13;;;;;;;2.28;1.90;;;;;;;30.16;31.80;91301.31;5012584;28;20038;-64
2022/05/11 08:57:41;;;;;;;2.17;1.85;;;;;;;27.86;35.94;91297.91;5012321;28;20088;-64
2022/05/11 09:00:12;;;;;;;2.53;2.17;;;;;;;31.54;30.62;91305.06;5012625;28;20030;-65
2022/05/11 09:02:44;;;;;;;2.20;2.00;;;;;;;32.62;28.80;91296.41;5012636;28;20077;-64
2022/05/11 09:05:11;;;;;;;3.85;1.90;;;;;;;31.84;29.99;91304.75;5012312;28;20048;-64
2022/05/11 09:07:40;;;;;;;3.10;2.20;;;;;;;31.55;29.65;91301.13;5012498;28;20033;-64
2022/05/11 09:10:08;;;;;;;4.55;2.38;;;;;;;32.34;28.89;91291.69;5012343;28;20034;-65
2022/05/11 09:12:35;;;;;;;2.72;1.92;;;;;;;33.78;28.69;91292.53;5011870;28;20539;-64
2022/05/11 09:15:04;;;;;;;2.72;2.50;;;;;;;29.20;32.19;91289.22;5011730;28;20460;-64
2022/05/11 09:17:36;;;;;;;6.45;2.33;;;;;;;26.15;35.72;91290.81;5012046;28;20038;-64
2022/05/11 09:20:15;;;;;;;3.63;2.30;;;;;;;23.98;38.99;91294.16;5012329;28;20030;-64
2022/05/11 09:22:54;;;;;;;5.22;2.50;;;;;;;22.90;41.22;91283.03;5012218;28;20030;-64
2022/05/11 09:25:26;;;;;;;3.13;2.30;;;;;;;22.23;43.23;91288.53;5012087;28;20033;-64
2022/05/11 09:28:12;;;;;;;2.38;2.15;;;;;;;22.55;42.39;91286.16;5011583;28;20037;-64
2022/05/11 09:30:39;;;;;;;3.58;2.28;;;;;;;21.68;44.54;91296.38;5012187;28;20065;-65
2022/05/11 09:33:17;;;;;;;4.70;3.10;;;;;;;20.63;46.04;91281.66;5012195;28;20026;-65
2022/05/11 09:35:44;;;;;;;4.13;2.50;;;;;;;20.13;47.31;91302.38;5010656;28;20117;-65
2022/05/11 09:38:21;;;;;;;6.38;2.90;;;;;;;19.64;48.52;91296.78;5011923;28;20030;-64
2022/05/11 09:40:55;;;;;;;9.68;4.25;;;;;;;19.53;49.82;91301.13;5011966;28;20516;-64
2022/05/11 09:43:43;;;;;;;5.68;2.58;;;;;;;19.79;49.98;91309.44;5011401;28;20026;-65
2022/05/11 09:46:32;;;;;;;2.08;1.80;;;;;;;19.72;48.92;91299.28;5011663;28;20053;-65
2022/05/11 09:49:15;;;;;;;3.08;2.13;;;;;;;19.41;49.81;91300.16;5011464;28;20050;-65
2022/05/11 09:51:46;;;;;;;;;;;;;;;22.10;48.20;91290.75;5012027;28;20091;-65
2022/05/11 09:54:33;;;;;;;2.67;2.20;;;;;;;27.42;37.29;91293.97;5011519;28;19913;-65
2022/05/11 09:57:02;;;;;;;2.58;2.17;;;;;;;29.74;32.71;91297.34;5011033;28;20054;-65
2022/05/11 09:59:40;;;;;;;2.40;2.20;;;;;;;31.42;30.59;91301.06;5011498;28;20037;-66
2022/05/11 10:02:27;;;;;;;6.65;2.53;;;;;;;29.50;31.58;91300.06;5011568;28;20030;-66
2022/05/11 10:05:01;;;;;;;2.75;2.10;;;;;;;26.50;34.78;91295.34;5011206;28;20148;-66
2022/05/11 10:07:29;;;;;;;3.80;2.60;;;;;;;25.01;36.60;91285.53;5011337;28;20076;-65
2022/05/11 10:10:01;;;;;;;2.00;1.80;;;;;;;24.35;36.79;91293.19;5010186;28;20045;-65
2022/05/11 10:12:31;;;;;;;3.67;1.90;;;;;;;24.05;38.57;91296.94;5010873;28;20026;-65
2022/05/11 10:23:45;;;;;;;3.60;2.70;;;;;;;21.14;44.66;91284.00;5011566;28;20092;-65
2022/05/11 10:26:19;;;;;;;3.08;2.30;;;;;;;20.88;44.25;91290.19;5011208;28;20037;-65
2022/05/11 10:28:58;;;;;;;3.28;2.20;;;;;;;21.45;43.52;91294.53;5010200;28;20053;-64
2022/05/11 10:31:52;;;;;;;4.53;3.13;;;;;;;21.06;44.82;91282.34;5011439;28;20137;-65
2022/05/11 10:34:26;;;;;;;6.20;2.80;;;;;;;21.31;44.46;91288.16;5010856;28;20021;-65
2022/05/11 10:37:04;;;;;;;15.80;6.57;;;;;;;21.79;44.45;91281.84;5011397;28;20026;-65
2022/05/11 10:39:45;;;;;;;6.35;2.60;;;;;;;22.74;42.80;91288.66;5011125;28;20033;-65
2022/05/11 10:42:29;;;;;;;3.72;2.65;;;;;;;22.98;39.90;91288.09;5010702;28;20148;-65
2022/05/11 10:45:03;;;;;;;4.18;2.10;;;;;;;22.58;41.48;91288.91;5011193;28;20450;-65
2022/05/11 10:47:34;;;;;;;3.65;2.03;;;;;;;22.39;42.55;91283.66;5011183;28;20022;-64
2022/05/11 10:50:13;;;;;;;4.53;3.20;;;;;;;21.96;42.60;91290.53;5010935;28;20042;-65
2022/05/11 10:53:14;;;;;;;4.65;2.60;;;;;;;21.48;44.43;91287.63;5011014;28;20092;-66
2022/05/11 10:56:07;;;;;;;2.42;2.10;;;;;;;21.07;45.67;91292.78;5010896;28;20032;-65
2022/05/11 10:58:35;;;;;;;11.68;4.85;;;;;;;21.10;44.91;91280.47;5010574;28;20512;-65
2022/05/11 11:01:12;;;;;;;3.70;2.85;;;;;;;20.95;44.36;91290.28;5010810;28;20042;-64
2022/05/11 11:03:56;;;;;;;6.85;2.60;;;;;;;20.79;45.68;91289.63;5010877;28;20496;-65
2022/05/11 11:09:51;;;;;;;4.70;2.13;;;;;;;20.41;47.21;91285.94;5010944;28;20041;-63
2022/05/11 11:12:28;;;;;;;3.40;2.60;;;;;;;20.54;47.19;91276.50;5010461;28;20048;-65
2022/05/11 11:14:57;;;;;;;4.82;2.53;;;;;;;20.66;46.06;91272.03;5010339;28;20061;-64
2022/05/11 11:17:25;;;;;;;30.67;7.63;;;;;;;21.00;45.88;91279.19;5010815;28;20068;-65
2022/05/11 11:19:54;;;;;;;2.67;2.30;;;;;;;21.53;45.07;91285.38;5010840;28;20042;-65
2022/05/11 11:22:20;;;;;;;13.27;3.75;;;;;;;22.10;43.71;91274.47;5010846;28;20057;-65
2022/05/11 11:25:12;;;;;;;2.72;2.50;;;;;;;22.97;43.23;91278.41;5010627;28;20577;-65
2022/05/11 11:28:03;;;;;;;4.43;2.20;;;;;;;26.50;37.15;91274.28;5010295;28;20038;-65
2022/05/11 11:30:29;;;;;;;5.82;2.50;;;;;;;27.68;35.02;91273.47;5009246;28;20038;-65
2022/05/11 11:33:13;;;;;;;2.90;2.08;;;;;;;27.55;34.89;91270.44;5010536;28;20480;-66
2022/05/11 11:35:51;;;;;;;2.55;2.20;;;;;;;25.70;37.63;91276.94;5010421;28;20042;-66
2022/05/11 11:38:24;;;;;;;3.47;2.28;;;;;;;26.76;35.02;91270.25;5010736;28;20041;-66
2022/05/11 11:41:22;;;;;;;2.70;2.10;;;;;;;26.26;36.19;91267.78;5013950;28;20044;-66
2022/05/11 11:43:53;;;;;;;7.30;2.70;;;;;;;26.14;37.39;91270.16;5013781;28;20419;-66
2022/05/11 11:46:41;;;;;;;2.67;2.38;;;;;;;28.19;35.59;91269.00;5013534;28;20105;-66
2022/05/11 11:49:18;;;;;;;3.80;2.60;;;;;;;29.04;33.18;91273.41;5025642;28;20054;-66
2022/05/11 11:51:53;;;;;;;5.25;2.25;;;;;;;26.93;34.93;91271.31;5033852;28;20052;-65
2022/05/11 11:54:37;;;;;;;69.60;7.28;;;;;;;25.78;37.64;91264.06;5033884;28;20033;-65
2022/05/11 11:57:06;;;;;;;6.50;3.53;;;;;;;25.38;37.67;91260.63;5033194;28;20029;-64
2022/05/11 11:59:40;;;;;;;5.20;3.10;;;;;;;25.94;35.81;91258.97;5033098;28;20456;-67
2022/05/11 12:02:27;;;;;;;12.90;7.85;;;;;;;26.54;36.38;91258.72;5033423;28;20033;-66
2022/05/11 12:05:11;;;;;;;12.60;4.97;;;;;;;27.62;35.27;91250.47;5013744;28;20092;-65
2022/05/11 12:16:52;;;;;;;3.42;2.42;;;;;;;23.56;39.09;91237.69;5013773;28;20129;-65
2022/05/11 12:19:19;;;;;;;5.63;3.30;;;;;;;23.27;41.00;91225.88;5013616;28;20053;-65
2022/05/11 12:22:01;;;;;;;5.25;3.55;;;;;;;22.75;41.39;91233.25;5024229;28;20045;-65
2022/05/11 12:24:31;;;;;;;3.22;2.75;;;;;;;22.25;41.75;91232.03;5032476;28;20045;-65
2022/05/11 12:27:01;;;;;;;9.13;2.70;;;;;;;21.74;43.04;91225.28;5033797;28;20047;-65
2022/05/11 12:32:37;;;;;;;3.80;2.33;;;;;;;21.23;43.51;91233.88;5033124;28;20566;-65